Portada
METAR-TAF:

METAR-TAF

Aeropuertos :

Aeropuerto Internacional de Seychelles

Victoria, Mahé, Seychelles

latitud: 04-40S, longitud: 055-31E, altitud: 3 m

Observación

El informe se hizo hace 28 minutos, a las 22:00 UTC
Viento 17 kt del norte
Temperatura 29°C
Humedad 79%
Presión 1009 hPa
Visibilidad 10 km o más
Cielo nuboso a una altura de 2100 ft

METAR: FSIA 202200Z 35017KT 9999 BKN021 29/25 Q1009 NOSIG

Hora: 02:28 (22:28 UTC)

Pronóstico

El informe se hizo hace 5 horas y 28 minutos, a las 17:00 UTC
Pronóstico válido del 20 a las 18 UTC al 21 a las 18 UTC
Viento 14 kt del norte-noroeste
Visibilidad 10 km o más
Nubes dispersas a una altura de 2000 ft
Probabilidad 40% :
Temporalmente
del 20 a las 18 UTC al 20 a las 22 UTC
Visibilidad: 8000 m
Escasas nubes a una altura de 1600 ft, Cumulonimbus.
Cielo nuboso a una altura de 1800 ft
chaparrones de lluvia,

TAF: FSIA 201700Z 2018/2118 34014KT 9999 SCT020 PROB40 TEMPO 2018/2022 8000 SHRA FEW016CB BKN018

Observaciones y pronósticos meteorológicos de más de 4000 aeropuertos (mensajes METAR y TAF).

Los puntos amarillos y rojos representan las estaciones disponibles.

Ponga el ratón en el punto deseado para ver el nombre de la estación.

Haga clic para ver las observaciones y los pronósticos meteorológicos.

Para cambiar el mapa : haga clic en los botones verdes con una cruz de color negro para hacer un zoom, en el botón verde con un guión para alejar o en las flechas verdes para mapas adyacentes.


METAR-TAF: